createdAt,value
2018-02-27T00:01:41.061Z,98.47
2018-02-27T00:04:10.226Z,92.13
2018-02-27T00:06:39.374Z,91.37
2018-02-27T00:09:08.546Z,87.10
2018-02-27T00:11:37.693Z,96.83
2018-02-27T00:14:06.827Z,90.67
2018-02-27T00:16:36.029Z,90.80
2018-02-27T00:19:05.218Z,93.50
2018-02-27T00:21:34.369Z,88.30
2018-02-27T00:24:03.519Z,116.23
2018-02-27T00:26:32.684Z,92.27
2018-02-27T00:29:01.826Z,91.70
2018-02-27T00:31:30.962Z,91.40
2018-02-27T00:34:00.138Z,88.60
2018-02-27T00:36:29.268Z,89.27
2018-02-27T00:38:58.405Z,88.30
2018-02-27T00:41:27.705Z,91.47
2018-02-27T00:43:56.844Z,90.60
2018-02-27T00:46:26.033Z,91.23
2018-02-27T00:48:55.266Z,94.07
2018-02-27T00:51:24.451Z,90.40
2018-02-27T00:53:53.615Z,85.90
2018-02-27T00:56:22.754Z,94.27
2018-02-27T00:58:51.887Z,87.60
2018-02-27T01:01:21.067Z,93.13
2018-02-27T01:03:50.207Z,87.20
2018-02-27T01:06:19.355Z,106.03
2018-02-27T01:08:48.534Z,90.27
2018-02-27T01:11:17.657Z,97.27
2018-02-27T01:13:46.855Z,87.27
2018-02-27T01:16:16.028Z,91.70
2018-02-27T01:18:45.157Z,91.10
2018-02-27T01:21:14.284Z,94.90
2018-02-27T01:23:43.452Z,97.60
2018-02-27T01:26:12.586Z,87.53
2018-02-27T01:28:41.733Z,96.30
2018-02-27T01:31:10.893Z,99.37
2018-02-27T01:33:40.028Z,95.33
2018-02-27T01:36:09.167Z,92.07
2018-02-27T01:38:38.305Z,110.00
2018-02-27T01:41:07.450Z,92.73
2018-02-27T01:43:36.642Z,89.87
2018-02-27T01:46:05.918Z,91.17
2018-02-27T01:48:35.066Z,94.63
2018-02-27T01:51:10.011Z,98.70
2018-02-27T01:53:39.157Z,90.10
2018-02-27T01:56:08.302Z,124.70
2018-02-27T01:58:37.474Z,96.97
2018-02-27T02:01:06.606Z,92.20
2018-02-27T02:03:35.786Z,92.97
2018-02-27T02:06:05.349Z,94.90
2018-02-27T02:08:34.479Z,88.60
2018-02-27T02:11:03.689Z,93.10
2018-02-27T02:13:32.863Z,91.80
2018-02-27T02:16:01.993Z,93.87
2018-02-27T02:18:31.163Z,89.27
2018-02-27T02:21:00.302Z,95.20
2018-02-27T02:23:29.438Z,89.90
2018-02-27T02:25:58.601Z,91.70
2018-02-27T02:28:27.750Z,92.27
2018-02-27T02:30:56.901Z,90.27
2018-02-27T02:33:26.097Z,90.20
2018-02-27T02:35:55.233Z,95.03
2018-02-27T02:38:24.386Z,102.50
2018-02-27T02:40:53.589Z,91.40
2018-02-27T02:43:22.739Z,96.80
2018-02-27T02:45:51.949Z,90.60
2018-02-27T02:48:21.214Z,124.97
2018-02-27T02:50:50.349Z,92.40
2018-02-27T02:53:19.487Z,93.20
2018-02-27T02:55:48.657Z,89.47
2018-02-27T02:58:17.792Z,90.07
2018-02-27T03:00:46.964Z,90.70
2018-02-27T03:03:16.109Z,91.27
2018-02-27T03:05:45.241Z,97.27
2018-02-27T03:08:14.813Z,92.20
2018-02-27T03:10:43.941Z,93.67
2018-02-27T03:13:13.089Z,97.13
2018-02-27T03:15:42.316Z,94.20
2018-02-27T03:18:11.448Z,96.67
2018-02-27T03:20:40.601Z,94.87
2018-02-27T03:23:09.774Z,89.80
2018-02-27T03:25:38.910Z,93.90
2018-02-27T03:28:08.055Z,97.90
2018-02-27T03:30:37.222Z,92.63
2018-02-27T03:33:06.375Z,90.50
2018-02-27T03:35:35.514Z,97.27
2018-02-27T03:38:04.677Z,88.17
2018-02-27T03:40:33.814Z,92.00
2018-02-27T03:43:02.953Z,94.33
2018-02-27T03:45:32.117Z,92.27
2018-02-27T03:48:01.260Z,90.63
2018-02-27T03:50:30.393Z,92.50
2018-02-27T03:52:59.577Z,87.80
2018-02-27T03:55:28.706Z,90.20
2018-02-27T03:57:57.890Z,101.30
2018-02-27T04:00:27.033Z,92.50
2018-02-27T04:02:56.228Z,96.47
2018-02-27T04:05:25.374Z,91.73
2018-02-27T04:07:54.546Z,95.70
2018-02-27T04:10:23.689Z,101.90
2018-02-27T04:12:52.837Z,97.30
2018-02-27T04:15:21.990Z,103.93
2018-02-27T04:17:51.158Z,86.37
2018-02-27T04:20:20.293Z,95.80
2018-02-27T04:22:49.487Z,89.97
2018-02-27T04:25:18.639Z,96.27
2018-02-27T04:27:47.783Z,117.67
2018-02-27T04:30:16.941Z,99.30
2018-02-27T04:32:46.073Z,98.63
2018-02-27T04:35:15.229Z,97.57
2018-02-27T04:37:44.438Z,93.27
2018-02-27T04:40:13.586Z,101.57
2018-02-27T04:42:42.744Z,93.90
2018-02-27T04:45:11.910Z,96.57
2018-02-27T04:47:41.062Z,95.13
2018-02-27T04:50:10.218Z,104.10
2018-02-27T04:52:39.390Z,97.10
2018-02-27T04:55:08.550Z,99.20
2018-02-27T04:57:37.686Z,97.27
2018-02-27T05:00:06.830Z,101.63
2018-02-27T05:02:36.007Z,99.07
2018-02-27T05:05:05.183Z,95.27
2018-02-27T05:07:34.325Z,99.40
2018-02-27T05:10:03.464Z,101.33
2018-02-27T05:12:32.633Z,94.57
2018-02-27T05:15:01.777Z,96.93
2018-02-27T05:17:30.918Z,98.67
2018-02-27T05:20:00.056Z,99.20
2018-02-27T05:22:29.192Z,102.30
2018-02-27T05:24:58.375Z,100.20
2018-02-27T05:27:27.566Z,93.23
2018-02-27T05:29:56.710Z,98.13
2018-02-27T05:32:25.854Z,96.87
2018-02-27T05:34:55.021Z,91.67
2018-02-27T05:37:24.206Z,97.30
2018-02-27T05:39:53.335Z,95.37
2018-02-27T05:42:22.496Z,99.67
2018-02-27T05:44:51.636Z,97.17
2018-02-27T05:47:20.788Z,101.50
2018-02-27T05:49:49.997Z,100.67
2018-02-27T05:52:19.143Z,97.50
2018-02-27T05:54:48.310Z,98.60
2018-02-27T05:57:17.457Z,92.17
2018-02-27T05:59:46.606Z,100.97
2018-02-27T06:02:15.798Z,101.43
2018-02-27T06:04:44.943Z,97.33
2018-02-27T06:07:14.122Z,97.10
2018-02-27T06:09:43.270Z,93.93
2018-02-27T06:12:12.447Z,97.57
2018-02-27T06:14:41.623Z,97.37
2018-02-27T06:17:10.888Z,101.43
2018-02-27T06:19:40.053Z,95.67
2018-02-27T06:22:09.225Z,94.63
2018-02-27T06:24:38.422Z,103.23
2018-02-27T06:27:07.569Z,106.47
2018-02-27T06:29:36.746Z,101.07
2018-02-27T06:32:05.922Z,100.60
2018-02-27T06:34:35.076Z,101.63
2018-02-27T06:37:04.217Z,95.83
2018-02-27T06:39:33.410Z,100.00
2018-02-27T06:42:02.555Z,93.93
2018-02-27T06:44:31.692Z,98.93
2018-02-27T06:47:00.865Z,96.97
2018-02-27T06:49:30.004Z,98.07
2018-02-27T06:51:59.366Z,96.80
2018-02-27T06:54:28.537Z,92.63
2018-02-27T06:56:57.693Z,96.17
2018-02-27T06:59:26.826Z,94.77
2018-02-27T07:01:56.043Z,104.30
2018-02-27T07:04:25.178Z,100.40
2018-02-27T07:06:54.323Z,93.80
2018-02-27T07:09:23.479Z,91.40
2018-02-27T07:11:52.626Z,95.67
2018-02-27T07:14:21.778Z,95.27
2018-02-27T07:16:51.385Z,95.43
2018-02-27T07:19:20.544Z,92.83
2018-02-27T07:21:49.706Z,101.10
2018-02-27T07:24:18.877Z,101.13
2018-02-27T07:26:48.022Z,116.13
2018-02-27T07:29:17.169Z,99.70
2018-02-27T07:31:46.362Z,97.33
2018-02-27T07:34:15.568Z,95.33
2018-02-27T07:36:44.704Z,92.17
2018-02-27T07:39:13.884Z,93.07
2018-02-27T07:41:43.080Z,91.60
2018-02-27T07:44:12.312Z,106.40
2018-02-27T07:46:41.477Z,90.20
2018-02-27T07:49:10.625Z,96.20
2018-02-27T07:51:39.783Z,97.60
2018-02-27T07:54:09.005Z,101.10
2018-02-27T07:56:38.153Z,97.33
2018-02-27T07:59:07.310Z,95.40
2018-02-27T08:01:36.591Z,91.03
2018-02-27T08:04:05.846Z,131.27
2018-02-27T08:06:34.970Z,93.97
2018-02-27T08:09:04.102Z,92.97
2018-02-27T08:11:33.235Z,98.60
2018-02-27T08:14:02.414Z,91.03
2018-02-27T08:16:31.538Z,97.00
2018-02-27T08:19:00.678Z,105.40
2018-02-27T08:21:29.854Z,96.20
2018-02-27T08:23:59.013Z,102.27
2018-02-27T08:26:28.187Z,92.23
2018-02-27T08:28:57.335Z,104.97
2018-02-27T08:31:26.496Z,97.77
2018-02-27T08:33:55.628Z,92.97
2018-02-27T08:36:24.768Z,95.57
2018-02-27T08:38:53.913Z,95.00
2018-02-27T08:41:23.054Z,97.00
2018-02-27T08:43:52.235Z,94.17
2018-02-27T08:46:21.384Z,98.30
2018-02-27T08:48:50.525Z,93.23
2018-02-27T08:51:19.710Z,99.00
2018-02-27T08:53:48.861Z,93.27
2018-02-27T08:56:18.011Z,96.07
2018-02-27T08:58:47.182Z,97.00
2018-02-27T09:01:16.333Z,85.10
2018-02-27T09:03:45.471Z,95.07
2018-02-27T09:06:14.687Z,88.00
2018-02-27T09:08:43.852Z,93.17
2018-02-27T09:11:13.007Z,97.00
2018-02-27T09:13:42.164Z,103.87
2018-02-27T09:16:11.333Z,100.83
2018-02-27T09:18:40.475Z,104.17
2018-02-27T09:21:09.648Z,93.67
2018-02-27T09:23:38.781Z,95.37
2018-02-27T09:26:07.930Z,90.80
2018-02-27T09:28:37.116Z,103.07
2018-02-27T09:31:06.283Z,97.53
2018-02-27T09:33:35.498Z,100.37
2018-02-27T09:36:04.648Z,97.63
2018-02-27T09:38:33.823Z,95.50
2018-02-27T09:41:02.985Z,95.67
2018-02-27T09:43:32.126Z,85.20
2018-02-27T09:46:01.266Z,96.47
2018-02-27T09:48:30.431Z,97.93
2018-02-27T09:50:59.591Z,107.07
2018-02-27T09:53:28.735Z,97.40
2018-02-27T09:55:57.906Z,99.10
2018-02-27T09:58:27.079Z,106.47
2018-02-27T10:00:56.225Z,104.40
2018-02-27T10:03:25.387Z,88.27
2018-02-27T10:05:54.523Z,93.70
2018-02-27T10:08:23.673Z,100.37
2018-02-27T10:10:52.848Z,101.40
2018-02-27T10:13:22.037Z,99.70
2018-02-27T10:15:51.187Z,100.77
2018-02-27T10:18:20.370Z,101.40
2018-02-27T10:20:49.526Z,86.83
2018-02-27T10:23:18.679Z,104.53
2018-02-27T10:25:47.818Z,90.93
2018-02-27T10:28:16.999Z,95.47
2018-02-27T10:30:46.186Z,101.23
2018-02-27T10:33:15.274Z,94.10
2018-02-27T10:35:44.468Z,97.83
2018-02-27T10:38:13.658Z,87.63
2018-02-27T10:40:42.856Z,92.10
2018-02-27T10:43:12.000Z,99.63
2018-02-27T10:45:41.145Z,99.27
2018-02-27T10:48:10.302Z,90.30
2018-02-27T10:50:39.461Z,90.17
2018-02-27T10:53:08.605Z,95.57
2018-02-27T10:55:37.779Z,96.13
2018-02-27T10:58:06.917Z,105.23
2018-02-27T11:00:41.726Z,98.77
2018-02-27T11:03:10.865Z,89.40
2018-02-27T11:05:40.015Z,96.40
2018-02-27T11:08:09.176Z,91.40
2018-02-27T11:10:38.733Z,90.37
2018-02-27T11:13:07.872Z,95.63
2018-02-27T11:15:37.038Z,97.37
2018-02-27T11:18:06.190Z,92.90
2018-02-27T11:20:35.326Z,92.17
2018-02-27T11:23:04.501Z,90.77
2018-02-27T11:25:33.658Z,102.57
2018-02-27T11:28:02.821Z,96.03
2018-02-27T11:30:31.959Z,93.97
2018-02-27T11:33:01.131Z,90.60
2018-02-27T11:35:30.270Z,87.60
2018-02-27T11:37:59.407Z,92.13
2018-02-27T11:40:28.572Z,95.50
2018-02-27T11:42:57.707Z,106.73
2018-02-27T11:45:26.850Z,90.83
2018-02-27T11:47:56.038Z,107.57
2018-02-27T11:50:25.188Z,108.47
2018-02-27T11:52:54.692Z,97.80
2018-02-27T11:55:23.822Z,99.20
2018-02-27T11:57:52.961Z,100.83
2018-02-27T12:00:22.129Z,93.00
2018-02-27T12:02:51.279Z,92.33
2018-02-27T12:05:20.433Z,110.03
2018-02-27T12:07:49.609Z,97.50
2018-02-27T12:10:18.751Z,104.10
2018-02-27T12:12:47.953Z,95.13
2018-02-27T12:15:17.103Z,94.57
2018-02-27T12:17:46.273Z,98.40
2018-02-27T12:20:15.421Z,96.37
2018-02-27T12:22:44.580Z,93.67
2018-02-27T12:25:13.726Z,93.40
2018-02-27T12:27:42.911Z,93.10
2018-02-27T12:30:12.052Z,92.50
2018-02-27T12:32:41.233Z,91.03
2018-02-27T12:35:10.389Z,99.83
2018-02-27T12:37:39.535Z,98.00
2018-02-27T12:40:08.675Z,93.60
2018-02-27T12:42:37.835Z,91.67
2018-02-27T12:45:06.981Z,92.20
2018-02-27T12:47:36.105Z,100.10
2018-02-27T12:50:05.287Z,104.10
2018-02-27T12:52:34.438Z,90.63
2018-02-27T12:55:03.567Z,101.70
2018-02-27T12:57:32.823Z,93.80
2018-02-27T13:00:01.956Z,101.23
2018-02-27T13:02:31.086Z,91.77
2018-02-27T13:05:00.250Z,99.33
2018-02-27T13:07:29.410Z,89.33
2018-02-27T13:09:58.550Z,95.80
2018-02-27T13:12:27.710Z,104.33
2018-02-27T13:14:56.870Z,96.87
2018-02-27T13:17:26.009Z,98.43
2018-02-27T13:19:55.174Z,94.77
2018-02-27T13:22:24.324Z,94.77
2018-02-27T13:24:53.512Z,95.23
2018-02-27T13:27:22.676Z,97.30
2018-02-27T13:29:51.834Z,101.97
2018-02-27T13:32:20.991Z,109.63
2018-02-27T13:34:50.136Z,98.40
2018-02-27T13:37:19.284Z,98.80
2018-02-27T13:39:48.446Z,94.20
2018-02-27T13:42:17.581Z,96.27
2018-02-27T13:44:46.733Z,94.47
2018-02-27T13:47:15.914Z,105.77
2018-02-27T13:49:45.046Z,91.77
2018-02-27T13:52:14.215Z,100.73
2018-02-27T13:54:43.372Z,101.63
2018-02-27T13:57:12.522Z,91.43
2018-02-27T13:59:41.659Z,94.40
2018-02-27T14:02:10.951Z,93.97
2018-02-27T14:04:40.094Z,107.13
2018-02-27T14:07:09.265Z,93.03
2018-02-27T14:09:38.406Z,98.97
2018-02-27T14:12:07.743Z,98.87
2018-02-27T14:14:36.888Z,101.53
2018-02-27T14:17:06.049Z,86.20
2018-02-27T14:19:35.283Z,99.07
2018-02-27T14:22:04.386Z,99.27
2018-02-27T14:24:33.525Z,94.67
2018-02-27T14:27:02.702Z,98.50
2018-02-27T14:29:31.843Z,91.13
2018-02-27T14:32:00.997Z,98.67
2018-02-27T14:34:30.190Z,87.60
2018-02-27T14:36:59.341Z,95.40
2018-02-27T14:39:28.488Z,93.50
2018-02-27T14:41:57.676Z,93.37
2018-02-27T14:44:26.813Z,97.10
2018-02-27T14:46:55.987Z,94.50
2018-02-27T14:49:25.166Z,95.70
2018-02-27T14:51:54.302Z,93.23
2018-02-27T14:54:23.446Z,96.30
2018-02-27T14:56:52.614Z,93.13
2018-02-27T14:59:21.774Z,92.83
2018-02-27T15:01:50.909Z,116.23
2018-02-27T15:04:20.098Z,92.07
2018-02-27T15:06:49.233Z,96.57
2018-02-27T15:09:18.371Z,94.87
2018-02-27T15:11:47.565Z,93.37
2018-02-27T15:14:16.729Z,95.60
2018-02-27T15:16:45.898Z,97.80
2018-02-27T15:19:15.135Z,94.37
2018-02-27T15:21:44.271Z,96.30
2018-02-27T15:24:13.403Z,87.87
2018-02-27T15:26:42.574Z,100.53
2018-02-27T15:29:11.720Z,96.53
2018-02-27T15:31:40.853Z,88.97
2018-02-27T15:34:10.006Z,94.70
2018-02-27T15:36:39.150Z,92.90
2018-02-27T15:39:08.295Z,88.90
2018-02-27T15:41:37.479Z,91.97
2018-02-27T15:44:06.635Z,92.07
2018-02-27T15:46:35.778Z,99.43
2018-02-27T15:49:04.951Z,100.13
2018-02-27T15:51:34.083Z,88.40
2018-02-27T15:54:03.223Z,97.80
2018-02-27T15:56:32.404Z,101.97
2018-02-27T15:59:01.535Z,99.00
2018-02-27T16:01:30.674Z,96.53
2018-02-27T16:03:59.858Z,91.87
2018-02-27T16:06:28.995Z,86.30
2018-02-27T16:08:58.126Z,100.87
2018-02-27T16:11:27.306Z,98.13
2018-02-27T16:13:56.442Z,101.07
2018-02-27T16:16:26.136Z,97.47
2018-02-27T16:18:55.306Z,91.53
2018-02-27T16:21:24.532Z,101.53
2018-02-27T16:23:53.671Z,88.97
2018-02-27T16:26:22.830Z,108.37
2018-02-27T16:28:52.021Z,111.13
2018-02-27T16:31:21.169Z,106.27
2018-02-27T16:33:50.310Z,96.83
2018-02-27T16:36:19.485Z,98.10
2018-02-27T16:38:48.618Z,98.00
2018-02-27T16:41:17.779Z,102.40
2018-02-27T16:43:46.954Z,104.77
2018-02-27T16:46:16.113Z,96.97
2018-02-27T16:48:45.257Z,99.53
2018-02-27T16:51:14.422Z,97.37
2018-02-27T16:53:43.605Z,99.30
2018-02-27T16:56:12.745Z,103.40
2018-02-27T16:58:41.930Z,95.67
2018-02-27T17:01:11.083Z,97.27
2018-02-27T17:03:40.241Z,105.23
2018-02-27T17:06:09.432Z,96.13
2018-02-27T17:08:38.580Z,96.17
2018-02-27T17:11:07.730Z,90.50
2018-02-27T17:13:36.921Z,98.07
2018-02-27T17:16:06.083Z,101.00
2018-02-27T17:18:35.234Z,95.77
2018-02-27T17:21:04.424Z,99.50
2018-02-27T17:23:33.557Z,101.53
2018-02-27T17:26:02.685Z,99.10
2018-02-27T17:28:31.931Z,95.43
2018-02-27T17:31:01.090Z,101.70
2018-02-27T17:33:30.266Z,92.80
2018-02-27T17:35:59.444Z,98.67
2018-02-27T17:38:28.573Z,97.23
2018-02-27T17:40:57.714Z,98.43
2018-02-27T17:43:26.884Z,99.80
2018-02-27T17:45:56.047Z,100.47
2018-02-27T17:48:25.261Z,97.57
2018-02-27T17:50:54.521Z,94.70
2018-02-27T17:53:23.726Z,101.30
2018-02-27T17:55:52.859Z,98.53
2018-02-27T17:58:22.047Z,100.53
2018-02-27T18:00:51.250Z,97.67
2018-02-27T18:03:20.413Z,100.57
2018-02-27T18:05:49.592Z,108.30
2018-02-27T18:08:18.745Z,94.10
2018-02-27T18:10:47.902Z,102.77
2018-02-27T18:13:17.060Z,100.40
2018-02-27T18:15:46.198Z,96.47
2018-02-27T18:18:15.386Z,97.87
2018-02-27T18:20:44.558Z,103.67
2018-02-27T18:23:13.703Z,105.50
2018-02-27T18:25:42.861Z,106.73
2018-02-27T18:28:11.998Z,95.57
2018-02-27T18:30:41.199Z,104.10
2018-02-27T18:33:10.337Z,105.67
2018-02-27T18:35:39.517Z,103.20
2018-02-27T18:38:08.659Z,102.30
2018-02-27T18:40:37.855Z,119.53
2018-02-27T18:43:07.007Z,105.33
2018-02-27T18:45:36.173Z,97.47
2018-02-27T18:48:05.373Z,102.40
2018-02-27T18:50:34.513Z,105.50
2018-02-27T18:53:03.648Z,97.33
2018-02-27T18:55:32.816Z,99.97
2018-02-27T18:58:01.968Z,121.07
2018-02-27T19:00:31.151Z,102.97
2018-02-27T19:03:00.287Z,105.43
2018-02-27T19:05:29.437Z,103.10
2018-02-27T19:07:58.609Z,107.70
2018-02-27T19:10:27.749Z,105.13
2018-02-27T19:12:56.913Z,107.10
2018-02-27T19:15:26.081Z,108.77
2018-02-27T19:17:55.217Z,102.37
2018-02-27T19:20:24.398Z,108.90
2018-02-27T19:22:53.554Z,105.97
2018-02-27T19:25:22.733Z,105.63
2018-02-27T19:27:51.885Z,105.23
2018-02-27T19:30:21.028Z,105.57
2018-02-27T19:32:50.232Z,103.53
2018-02-27T19:35:19.374Z,112.70
2018-02-27T19:37:48.608Z,104.73
2018-02-27T19:40:17.774Z,114.57
2018-02-27T19:42:46.976Z,112.10
2018-02-27T19:45:16.144Z,108.00
2018-02-27T19:47:45.321Z,108.33
2018-02-27T19:50:14.483Z,111.87
2018-02-27T19:52:43.622Z,108.00
2018-02-27T19:55:12.795Z,104.83
2018-02-27T19:57:41.945Z,110.50
2018-02-27T20:00:11.086Z,110.43
2018-02-27T20:02:40.754Z,104.53
2018-02-27T20:05:09.925Z,99.97
2018-02-27T20:07:39.087Z,100.37
2018-02-27T20:10:08.265Z,106.17
2018-02-27T20:12:37.423Z,116.10
2018-02-27T20:15:06.573Z,113.63
2018-02-27T20:20:36.419Z,115.03
2018-02-27T20:23:12.376Z,125.93
2018-02-27T20:25:41.544Z,115.03
2018-02-27T20:28:25.650Z,116.57
2018-02-27T20:30:54.806Z,123.47
2018-02-27T20:33:24.054Z,117.30
2018-02-27T20:35:53.190Z,115.57
2018-02-27T20:38:28.040Z,129.37
2018-02-27T20:40:57.179Z,125.00
2018-02-27T20:43:26.358Z,124.37
2018-02-27T20:45:55.555Z,131.90
2018-02-27T20:48:24.746Z,134.43
2018-02-27T20:50:53.892Z,116.47
2018-02-27T20:53:23.072Z,133.53
2018-02-27T20:55:52.234Z,119.03
2018-02-27T20:58:21.375Z,122.77
2018-02-27T21:00:50.517Z,132.10
2018-02-27T21:03:19.689Z,118.10
2018-02-27T21:05:48.854Z,113.97
2018-02-27T21:08:18.053Z,126.87
2018-02-27T21:10:47.197Z,127.77
2018-02-27T21:13:16.342Z,113.83
2018-02-27T21:15:45.494Z,118.20
2018-02-27T21:18:14.706Z,115.43
2018-02-27T21:20:43.854Z,117.57
2018-02-27T21:23:13.140Z,116.60
2018-02-27T21:25:42.280Z,119.00
2018-02-27T21:28:11.462Z,108.73
2018-02-27T21:30:40.605Z,117.60
2018-02-27T21:33:09.738Z,119.13
2018-02-27T21:35:38.961Z,120.90
2018-02-27T21:38:08.114Z,134.93
2018-02-27T21:40:37.266Z,128.23
2018-02-27T21:43:06.478Z,132.20
2018-02-27T21:45:35.621Z,131.90
2018-02-27T21:48:04.770Z,126.23
2018-02-27T21:50:33.953Z,129.73
2018-02-27T21:53:03.089Z,119.17
2018-02-27T21:55:32.268Z,123.37
2018-02-27T21:58:01.462Z,117.67
2018-02-27T22:00:30.607Z,124.60
2018-02-27T22:02:59.790Z,119.37
2018-02-27T22:05:28.933Z,122.57
2018-02-27T22:07:58.077Z,122.27
2018-02-27T22:10:27.255Z,104.90
2018-02-27T22:12:56.411Z,118.47
2018-02-27T22:15:25.555Z,128.00
2018-02-27T22:17:54.733Z,120.20
2018-02-27T22:20:23.936Z,131.90
2018-02-27T22:22:53.114Z,131.23
2018-02-27T22:25:22.788Z,121.37
2018-02-27T22:27:51.926Z,131.17
2018-02-27T22:30:21.102Z,122.03
2018-02-27T22:32:50.248Z,121.23
2018-02-27T22:35:19.389Z,116.97
2018-02-27T22:37:48.580Z,120.00
2018-02-27T22:40:17.725Z,115.90
2018-02-27T22:42:46.973Z,116.83
2018-02-27T22:45:16.112Z,114.63
2018-02-27T22:47:45.256Z,116.57
2018-02-27T22:50:14.446Z,118.60
2018-02-27T22:52:43.626Z,134.73
2018-02-27T22:55:12.789Z,120.97
2018-02-27T22:57:41.986Z,120.97
2018-02-27T23:00:11.120Z,144.70
2018-02-27T23:02:40.282Z,118.73
2018-02-27T23:05:09.469Z,127.93
2018-02-27T23:07:38.614Z,122.27
2018-02-27T23:10:07.759Z,118.17
2018-02-27T23:12:36.938Z,116.70
2018-02-27T23:15:06.126Z,123.73
2018-02-27T23:17:35.260Z,118.23
2018-02-27T23:20:04.453Z,131.67
2018-02-27T23:22:33.590Z,125.67
2018-02-27T23:25:22.465Z,122.90
2018-02-27T23:27:53.004Z,113.33
2018-02-27T23:30:22.351Z,116.13
2018-02-27T23:32:53.654Z,120.60
2018-02-27T23:35:26.022Z,113.37
2018-02-27T23:37:55.162Z,120.67
2018-02-27T23:40:24.310Z,124.90
2018-02-27T23:42:53.510Z,120.27
2018-02-27T23:45:22.653Z,114.47
2018-02-27T23:47:51.788Z,120.77
2018-02-27T23:50:20.967Z,123.83
2018-02-27T23:52:50.157Z,111.63
2018-02-27T23:55:19.333Z,119.73
2018-02-27T23:57:48.468Z,115.53
